createdAt,value
2019-03-22T00:04:42.750Z,16.97
2019-03-22T00:09:36.729Z,16.27
2019-03-22T00:14:30.831Z,17.37
2019-03-22T00:19:24.822Z,17.43
2019-03-22T00:24:18.774Z,17.50
2019-03-22T00:29:13.049Z,17.67
2019-03-22T00:34:07.145Z,17.67
2019-03-22T00:39:01.124Z,18.67
2019-03-22T00:43:55.325Z,18.30
2019-03-22T00:48:49.410Z,18.17
2019-03-22T00:53:43.448Z,17.00
2019-03-22T00:58:37.431Z,16.80
2019-03-22T01:03:31.432Z,16.17
2019-03-22T01:08:25.428Z,17.83
2019-03-22T01:13:19.397Z,17.60
2019-03-22T01:18:13.370Z,17.60
2019-03-22T01:23:07.350Z,18.13
2019-03-22T01:28:01.344Z,17.07
2019-03-22T01:32:55.502Z,17.17
2019-03-22T01:37:49.494Z,17.80
2019-03-22T01:42:43.574Z,16.83
2019-03-22T01:47:37.531Z,16.90
2019-03-22T01:52:31.518Z,17.60
2019-03-22T01:57:25.622Z,16.70
2019-03-22T02:02:19.603Z,16.13
2019-03-22T02:07:13.656Z,16.20
2019-03-22T02:12:07.649Z,16.03
2019-03-22T02:17:01.768Z,16.23
2019-03-22T02:21:55.737Z,16.40
2019-03-22T02:26:49.688Z,16.13
2019-03-22T02:31:43.679Z,15.53
2019-03-22T02:36:37.652Z,15.03
2019-03-22T02:41:31.627Z,14.00
2019-03-22T02:46:25.615Z,15.40
2019-03-22T02:51:19.585Z,15.53
2019-03-22T02:56:13.719Z,16.00
2019-03-22T03:01:07.931Z,15.57
2019-03-22T03:06:01.907Z,15.17
2019-03-22T03:10:55.970Z,14.50
2019-03-22T03:15:49.942Z,15.00
2019-03-22T03:20:43.942Z,15.17
2019-03-22T03:25:37.902Z,15.37
2019-03-22T03:30:31.863Z,14.77
2019-03-22T03:35:25.828Z,14.37
2019-03-22T03:40:19.991Z,13.97
2019-03-22T03:45:31.779Z,14.93
2019-03-22T03:50:25.731Z,15.00
2019-03-22T03:55:19.696Z,14.53
2019-03-22T04:00:14.045Z,13.63
2019-03-22T04:05:08.093Z,14.17
2019-03-22T04:10:04.505Z,13.40
2019-03-22T04:14:58.478Z,13.80
2019-03-22T04:19:52.469Z,14.60
2019-03-22T04:24:46.428Z,13.63
2019-03-22T04:29:40.389Z,13.37
2019-03-22T04:34:34.366Z,13.57
2019-03-22T04:39:28.376Z,14.17
2019-03-22T04:44:22.405Z,14.70
2019-03-22T04:49:16.769Z,13.53
2019-03-22T04:54:11.020Z,15.13
2019-03-22T04:59:18.518Z,14.80
2019-03-22T05:04:04.373Z,14.27
2019-03-22T05:08:59.038Z,14.33
2019-03-22T05:13:55.002Z,14.57
2019-03-22T05:18:49.773Z,15.20
2019-03-22T05:23:44.932Z,14.90
2019-03-22T05:28:38.998Z,15.30
2019-03-22T05:33:32.963Z,13.93
2019-03-22T05:38:26.958Z,14.73
2019-03-22T05:43:20.981Z,15.73
2019-03-22T05:48:15.029Z,16.03
2019-03-22T05:53:09.006Z,15.07
2019-03-22T05:58:03.086Z,14.80
2019-03-22T06:02:57.078Z,14.60
2019-03-22T06:07:51.038Z,14.60
2019-03-22T06:12:45.006Z,15.20
2019-03-22T06:17:38.974Z,15.17
2019-03-22T06:22:32.993Z,13.90
2019-03-22T06:27:26.973Z,14.60
2019-03-22T06:32:20.943Z,14.20
2019-03-22T06:37:15.048Z,14.23
2019-03-22T06:42:09.056Z,14.40
2019-03-22T06:47:03.113Z,14.70
2019-03-22T06:51:57.069Z,14.30
2019-03-22T06:56:51.056Z,14.63
2019-03-22T07:01:45.035Z,15.43
2019-03-22T07:06:39.036Z,14.97
2019-03-22T07:11:33.083Z,15.67
2019-03-22T07:16:27.049Z,14.40
2019-03-22T07:21:21.026Z,15.07
2019-03-22T07:26:15.119Z,15.00
2019-03-22T07:31:09.078Z,14.00
2019-03-22T07:36:03.138Z,15.10
2019-03-22T07:40:57.145Z,14.77
2019-03-22T07:45:51.289Z,14.67
2019-03-22T07:50:45.282Z,14.23
2019-03-22T07:55:39.342Z,14.00
2019-03-22T08:00:33.436Z,14.17
2019-03-22T08:05:27.415Z,13.93
2019-03-22T08:10:21.514Z,13.77
2019-03-22T08:15:19.510Z,13.37
2019-03-22T08:20:13.539Z,13.07
2019-03-22T08:25:07.699Z,13.03
2019-03-22T08:30:02.518Z,13.83
2019-03-22T08:34:56.491Z,13.30
2019-03-22T08:39:50.512Z,13.50
2019-03-22T08:44:44.608Z,13.90
2019-03-22T08:49:38.730Z,14.75
2019-03-22T08:54:32.777Z,14.37
2019-03-22T08:59:26.725Z,13.87
2019-03-22T09:04:20.740Z,13.83
2019-03-22T09:09:14.691Z,15.40
2019-03-22T09:14:08.666Z,15.37
2019-03-22T09:19:02.709Z,14.00
2019-03-22T09:23:56.778Z,13.30
2019-03-22T09:28:50.874Z,12.63
2019-03-22T09:33:44.816Z,12.98
2019-03-22T09:38:38.771Z,13.03
2019-03-22T09:43:32.808Z,13.35
2019-03-22T09:48:26.745Z,12.58
2019-03-22T09:53:20.818Z,11.48
2019-03-22T09:58:14.851Z,12.03
2019-03-22T10:03:08.960Z,11.88
2019-03-22T10:08:03.027Z,12.13
2019-03-22T10:12:57.036Z,11.40
2019-03-22T10:17:51.029Z,11.75
2019-03-22T10:22:44.996Z,10.72
2019-03-22T10:27:39.111Z,11.03
2019-03-22T10:32:33.151Z,11.15
2019-03-22T10:37:27.308Z,10.60
2019-03-22T10:42:21.319Z,9.10
2019-03-22T10:47:17.973Z,9.40
2019-03-22T10:52:11.142Z,9.15
2019-03-22T10:57:05.151Z,8.88
2019-03-22T11:02:03.777Z,8.15
2019-03-22T11:06:55.087Z,7.80
2019-03-22T11:11:49.161Z,6.75
2019-03-22T11:16:43.145Z,6.80
2019-03-22T11:21:37.335Z,5.75
2019-03-22T11:26:31.337Z,5.78
2019-03-22T11:31:28.586Z,5.62
2019-03-22T11:36:21.481Z,5.85
2019-03-22T11:41:15.597Z,6.10
2019-03-22T11:46:09.571Z,5.85
2019-03-22T11:51:03.956Z,5.17
2019-03-22T11:55:57.903Z,4.80
2019-03-22T12:00:51.983Z,4.95
2019-03-22T12:05:46.078Z,4.55
2019-03-22T12:10:40.211Z,4.60
2019-03-22T12:15:34.185Z,5.00
2019-03-22T12:20:28.165Z,5.22
2019-03-22T12:25:24.150Z,5.33
2019-03-22T12:30:18.361Z,4.37
2019-03-22T12:35:14.470Z,4.20
2019-03-22T12:40:14.357Z,3.72
2019-03-22T12:45:11.553Z,3.50
2019-03-22T12:50:06.445Z,3.00
2019-03-22T12:55:00.494Z,2.85
2019-03-22T12:59:54.477Z,2.90
2019-03-22T13:04:48.477Z,2.90
2019-03-22T13:09:42.469Z,2.72
2019-03-22T13:14:36.552Z,2.27
2019-03-22T13:19:30.576Z,2.33
2019-03-22T13:24:24.876Z,2.25
2019-03-22T13:29:18.876Z,2.10
2019-03-22T13:34:13.185Z,2.30
2019-03-22T13:39:07.271Z,2.20
2019-03-22T13:44:01.319Z,2.27
2019-03-22T13:48:55.325Z,1.90
2019-03-22T13:53:49.270Z,2.05
2019-03-22T13:58:43.490Z,1.80
2019-03-22T14:03:37.463Z,2.08
2019-03-22T14:08:31.425Z,2.10
2019-03-22T14:13:25.409Z,2.10
2019-03-22T14:18:19.406Z,1.77
2019-03-22T14:23:13.536Z,1.80
2019-03-22T14:28:07.517Z,2.00
2019-03-22T14:33:01.522Z,1.67
2019-03-22T14:37:55.656Z,1.40
2019-03-22T14:42:49.779Z,1.45
2019-03-22T14:47:43.919Z,1.30
2019-03-22T14:52:38.025Z,1.32
2019-03-22T14:57:31.999Z,1.15
2019-03-22T15:02:26.023Z,1.20
2019-03-22T15:07:20.268Z,1.10
2019-03-22T15:12:14.480Z,1.10
2019-03-22T15:17:13.091Z,1.30
2019-03-22T15:22:09.084Z,1.05
2019-03-22T15:27:21.698Z,1.40
2019-03-22T15:32:20.503Z,1.42
2019-03-22T15:37:28.591Z,1.30
2019-03-22T15:42:23.150Z,1.40
2019-03-22T15:47:17.475Z,1.80
2019-03-22T15:52:11.477Z,1.75
2019-03-22T15:57:05.572Z,1.92
2019-03-22T16:01:59.798Z,1.65
2019-03-22T16:06:53.773Z,2.17
2019-03-22T16:11:48.255Z,1.77
2019-03-22T16:16:42.260Z,1.90
2019-03-22T16:21:36.369Z,2.25
2019-03-22T16:26:30.492Z,3.55
2019-03-22T16:31:24.490Z,4.80
2019-03-22T16:36:18.560Z,5.83
2019-03-22T16:41:12.691Z,3.22
2019-03-22T16:46:06.759Z,2.83
2019-03-22T16:51:00.848Z,2.98
2019-03-22T16:55:54.911Z,3.30
2019-03-22T17:00:50.031Z,2.77
2019-03-22T17:05:44.265Z,3.25
2019-03-22T17:10:38.338Z,2.90
2019-03-22T17:15:32.419Z,3.47
2019-03-22T17:20:26.512Z,3.15
2019-03-22T17:25:20.497Z,3.50
2019-03-22T17:30:14.889Z,3.62
2019-03-22T17:35:08.973Z,5.12
2019-03-22T17:40:06.518Z,6.20
2019-03-22T17:45:00.609Z,9.03
2019-03-22T17:49:54.600Z,7.05
2019-03-22T17:54:48.599Z,7.20
2019-03-22T17:59:42.609Z,6.65
2019-03-22T18:04:36.610Z,5.42
2019-03-22T18:09:30.604Z,4.62
2019-03-22T18:14:24.586Z,4.70
2019-03-22T18:19:18.538Z,4.72
2019-03-22T18:24:12.520Z,4.65
2019-03-22T18:29:06.503Z,4.67
2019-03-22T18:34:00.585Z,4.67
2019-03-22T18:38:54.633Z,4.60
2019-03-22T18:43:48.722Z,4.35
2019-03-22T18:48:42.700Z,5.03
2019-03-22T18:53:36.701Z,4.40
2019-03-22T18:58:30.691Z,4.37
2019-03-22T19:03:24.806Z,4.12
2019-03-22T19:08:19.086Z,3.95
2019-03-22T19:13:13.084Z,4.12
2019-03-22T19:18:07.072Z,5.95
2019-03-22T19:23:01.390Z,5.45
2019-03-22T19:27:55.369Z,4.20
2019-03-22T19:32:49.808Z,4.22
2019-03-22T19:37:43.916Z,4.70
2019-03-22T19:42:38.166Z,6.17
2019-03-22T19:47:32.115Z,6.20
2019-03-22T19:52:26.242Z,5.62
2019-03-22T19:57:20.191Z,5.65
2019-03-22T20:02:14.225Z,6.37
2019-03-22T20:07:08.257Z,5.85
2019-03-22T20:12:04.425Z,5.65
2019-03-22T20:16:58.373Z,5.58
2019-03-22T20:21:52.489Z,5.70
2019-03-22T20:26:46.465Z,4.53
2019-03-22T20:31:40.720Z,9.83
2019-03-22T20:36:34.876Z,6.83
2019-03-22T20:41:29.046Z,5.42
2019-03-22T20:46:23.154Z,5.50
2019-03-22T20:51:17.260Z,4.22
2019-03-22T20:56:11.280Z,5.00
2019-03-22T21:01:05.379Z,4.30
2019-03-22T21:05:59.351Z,4.50
2019-03-22T21:10:53.497Z,4.55
2019-03-22T21:15:47.476Z,4.35
2019-03-22T21:20:41.466Z,4.70
2019-03-22T21:25:35.448Z,4.83
2019-03-22T21:30:29.458Z,4.85
2019-03-22T21:35:23.539Z,5.20
2019-03-22T21:40:17.524Z,4.90
2019-03-22T21:45:12.275Z,4.90
2019-03-22T21:50:08.800Z,5.40
2019-03-22T21:55:04.599Z,4.87
2019-03-22T21:59:58.568Z,5.85
2019-03-22T22:04:52.746Z,5.62
2019-03-22T22:09:46.755Z,6.15
2019-03-22T22:14:41.301Z,6.58
2019-03-22T22:19:35.457Z,6.67
2019-03-22T22:24:29.456Z,6.17
2019-03-22T22:29:23.424Z,6.43
2019-03-22T22:34:17.405Z,6.10
2019-03-22T22:39:11.469Z,6.33
2019-03-22T22:44:05.583Z,6.07
2019-03-22T22:48:59.675Z,6.20
2019-03-22T22:53:53.677Z,6.37
2019-03-22T22:58:48.007Z,7.10
2019-03-22T23:03:41.968Z,7.30
2019-03-22T23:08:36.373Z,8.00
2019-03-22T23:13:30.455Z,7.27
2019-03-22T23:18:24.450Z,8.28
2019-03-22T23:23:18.490Z,7.20
2019-03-22T23:28:12.464Z,6.93
2019-03-22T23:33:06.448Z,7.10
2019-03-22T23:38:00.419Z,9.03
2019-03-22T23:42:54.427Z,9.30
2019-03-22T23:47:48.504Z,9.70
2019-03-22T23:52:42.519Z,10.70
2019-03-22T23:57:36.494Z,11.23
